Time;durP1;ratioP1;P1;durP2;ratioP2;P2;SDS_P1;SDS_P2;PMS_P1;PMS_P2;Temp;Humidity;BMP_temperature;BMP_pressure;BME280_temperature;BME280_humidity;BME280_pressure;Samples;Min_cycle;Max_cycle;Signal;HPM_P1;HPM_P2
2022/11/15 00:03:03;;;;;;;15.73;7.27;;;8.90;1.00;;;;;;5091392;28;20424;-85
2022/11/15 00:06:01;;;;;;;11.40;6.43;;;8.80;1.00;;;;;;5072706;28;20236;-85
2022/11/15 00:08:58;;;;;;;12.90;6.10;;;8.80;1.00;;;;;;5094064;28;20438;-85
2022/11/15 00:11:40;;;;;;;10.37;6.20;;;8.70;1.00;;;;;;5078243;28;20537;-85
2022/11/15 00:14:51;;;;;;;12.87;6.73;;;8.60;1.00;;;;;;5074262;28;20406;-85
2022/11/15 00:18:09;;;;;;;17.13;8.37;;;8.50;1.00;;;;;;5077282;28;20467;-84
2022/11/15 00:20:40;;;;;;;16.90;9.00;;;8.40;1.00;;;;;;5078896;28;20429;-84
2022/11/15 00:23:27;;;;;;;13.10;7.37;;;8.40;1.00;;;;;;5074003;28;20997;-84
2022/11/15 00:25:59;;;;;;;18.43;7.90;;;8.40;1.00;;;;;;5074800;28;20445;-82
2022/11/15 00:35:15;;;;;;;12.10;7.03;;;8.50;1.00;;;;;;5073671;28;20443;-83
2022/11/15 00:38:27;;;;;;;14.70;6.77;;;8.50;1.00;;;;;;5073416;28;20436;-82
2022/11/15 00:41:39;;;;;;;14.83;8.03;;;8.40;1.00;;;;;;5089431;28;20637;-81
2022/11/15 00:44:27;;;;;;;17.60;8.07;;;8.50;1.00;;;;;;5092365;28;20432;-82
2022/11/15 00:47:39;;;;;;;12.57;7.33;;;8.50;1.00;;;;;;5078870;28;20448;-81
2022/11/15 00:50:33;;;;;;;16.13;8.37;;;8.50;1.00;;;;;;5075549;28;20543;-81
2022/11/15 00:53:45;;;;;;;21.60;7.67;;;8.50;1.00;;;;;;5090780;28;20439;-82
2022/11/15 00:56:51;;;;;;;17.53;6.63;;;8.60;1.00;;;;;;5084511;28;20421;-81
2022/11/15 00:59:34;;;;;;;12.00;6.90;;;8.60;1.00;;;;;;5077008;28;20444;-81
2022/11/15 01:02:04;;;;;;;10.00;6.93;;;8.60;1.00;;;;;;5096267;28;20557;-81
2022/11/15 01:05:09;;;;;;;15.10;7.10;;;8.60;1.00;;;;;;5094754;28;20424;-82
2022/11/15 01:07:57;;;;;;;9.87;6.40;;;8.70;1.00;;;;;;5093474;28;20435;-82
2022/11/15 01:10:34;;;;;;;11.63;6.00;;;8.70;1.00;;;;;;5086938;28;20457;-82
2022/11/15 01:13:16;;;;;;;15.43;7.57;;;8.70;1.00;;;;;;5080302;28;20795;-82
2022/11/15 01:19:10;;;;;;;15.70;7.23;;;8.80;1.00;;;;;;5096051;28;20411;-82
2022/11/15 01:22:15;;;;;;;14.33;6.90;;;8.80;1.00;;;;;;5077696;28;20417;-82
2022/11/15 01:31:40;;;;;;;12.60;7.07;;;8.70;1.00;;;;;;5077063;28;20496;-82
2022/11/15 01:34:10;;;;;;;13.40;6.43;;;8.70;1.00;;;;;;5079181;28;20416;-82
2022/11/15 01:36:36;;;;;;;12.03;6.80;;;8.70;1.00;;;;;;5087827;28;20412;-82
2022/11/15 01:39:04;;;;;;;8.67;6.10;;;8.70;1.00;;;;;;5082355;28;20787;-81
2022/11/15 01:42:04;;;;;;;9.70;6.83;;;8.70;1.00;;;;;;5076248;28;20424;-81
2022/11/15 01:45:03;;;;;;;11.63;7.20;;;8.70;1.00;;;;;;5075665;28;20415;-82
2022/11/15 01:51:09;;;;;;;10.37;7.30;;;8.80;1.00;;;;;;5078339;28;20502;-83
2022/11/15 01:54:14;;;;;;;12.47;6.97;;;8.70;1.00;;;;;;5076490;28;20408;-83
2022/11/15 01:56:55;;;;;;;15.40;7.90;;;8.80;1.00;;;;;;5089838;28;20416;-83
2022/11/15 01:59:31;;;;;;;12.07;6.70;;;8.80;1.00;;;;;;5094779;28;20417;-82
2022/11/15 02:01:57;;;;;;;16.17;7.00;;;8.80;1.00;;;;;;5095305;28;20426;-82
2022/11/15 02:04:41;;;;;;;11.67;7.20;;;8.90;1.00;;;;;;5087255;28;20431;-82
2022/11/15 02:07:13;;;;;;;12.10;7.53;;;8.90;1.00;;;;;;5084984;28;20416;-82
2022/11/15 02:09:47;;;;;;;17.47;7.90;;;9.00;1.00;;;;;;5091456;28;20928;-82
2022/11/15 02:12:19;;;;;;;9.50;6.53;;;9.00;1.00;;;;;;5085112;28;20427;-82
2022/11/15 02:14:54;;;;;;;12.97;7.50;;;9.10;1.00;;;;;;5080701;28;20932;-82
2022/11/15 02:17:48;;;;;;;10.43;6.87;;;9.10;1.00;;;;;;5085642;28;20414;-82
2022/11/15 02:20:40;;;;;;;12.80;7.43;;;9.20;1.00;;;;;;5006121;28;20436;-82
2022/11/15 02:23:54;;;;;;;17.00;8.80;;;9.30;1.00;;;;;;5001055;28;20444;-82
2022/11/15 02:30:11;;;;;;;12.40;6.97;;;9.40;1.00;;;;;;4960070;28;20835;-82
2022/11/15 02:36:09;;;;;;;16.70;6.90;;;9.50;1.00;;;;;;4945209;29;20434;-84
2022/11/15 02:45:27;;;;;;;9.63;6.43;;;9.50;1.00;;;;;;4951692;28;20442;-85
2022/11/15 02:55:27;;;;;;;13.03;6.90;;;9.30;1.00;;;;;;4954716;29;20426;-85
2022/11/15 02:58:37;;;;;;;14.20;7.07;;;9.20;1.00;;;;;;5001474;28;21001;-85
2022/11/15 03:04:43;;;;;;;21.23;6.50;;;9.20;1.00;;;;;;5075310;28;20411;-84
2022/11/15 03:07:50;;;;;;;11.30;7.30;;;9.00;1.00;;;;;;5079310;28;20445;-84
2022/11/15 03:10:19;;;;;;;10.17;6.03;;;9.00;1.00;;;;;;5036730;28;20458;-85
2022/11/15 03:16:46;;;;;;;10.10;6.37;;;8.80;1.00;;;;;;5033154;28;20417;-84
2022/11/15 03:22:38;;;;;;;10.53;6.47;;;8.60;1.00;;;;;;5016427;28;20510;-84
2022/11/15 03:25:07;;;;;;;9.53;5.90;;;8.60;1.00;;;;;;5024370;28;20479;-84
2022/11/15 03:27:51;;;;;;;11.13;6.73;;;8.50;1.00;;;;;;5008252;28;20434;-84
2022/11/15 03:30:17;;;;;;;13.47;7.20;;;8.50;1.00;;;;;;5025923;28;20474;-84
2022/11/15 03:33:04;;;;;;;21.73;7.73;;;8.40;1.00;;;;;;5030643;28;20441;-84
2022/11/15 03:35:44;;;;;;;12.00;6.30;;;8.50;1.00;;;;;;5027516;28;20418;-83
2022/11/15 03:45:40;;;;;;;8.73;6.40;;;8.40;1.00;;;;;;5032470;28;20446;-84
2022/11/15 03:51:28;;;;;;;12.50;7.43;;;8.40;1.00;;;;;;5009766;28;20486;-84
2022/11/15 03:54:12;;;;;;;10.77;6.23;;;8.40;1.00;;;;;;5005060;28;20444;-84
2022/11/15 04:00:45;;;;;;;11.40;6.40;;;8.40;1.00;;;;;;5004224;28;21042;-84
2022/11/15 04:03:28;;;;;;;11.60;6.60;;;8.40;1.00;;;;;;5012055;28;20439;-84
2022/11/15 04:06:26;;;;;;;12.07;6.53;;;8.50;1.00;;;;;;5010716;28;20403;-84
2022/11/15 04:08:52;;;;;;;12.00;6.77;;;8.50;1.00;;;;;;4985511;28;20466;-84
2022/11/15 04:11:18;;;;;;;13.83;8.07;;;8.50;1.00;;;;;;4995498;28;20967;-85
2022/11/15 04:17:57;;;;;;;10.50;6.57;;;8.60;1.00;;;;;;5011991;28;20224;-84
2022/11/15 04:24:12;;;;;;;8.63;5.90;;;8.70;1.00;;;;;;5085856;28;20439;-84
2022/11/15 04:34:09;;;;;;;7.93;6.00;;;8.90;1.00;;;;;;5077021;28;20432;-84
2022/11/15 04:37:13;;;;;;;7.77;5.57;;;8.90;1.00;;;;;;5088247;28;20417;-84
2022/11/15 04:39:52;;;;;;;8.77;5.07;;;9.00;1.00;;;;;;5080245;28;20964;-84
2022/11/15 04:45:40;;;;;;;13.77;5.50;;;9.00;1.00;;;;;;5087215;28;20431;-84
2022/11/15 04:48:57;;;;;;;9.77;5.83;;;9.00;1.00;;;;;;5074310;28;20441;-84
2022/11/15 04:51:58;;;;;;;12.50;5.23;;;9.00;1.00;;;;;;5088116;28;20392;-84
2022/11/15 04:54:28;;;;;;;15.70;6.10;;;9.10;1.00;;;;;;5072688;28;20781;-83
2022/11/15 04:56:58;;;;;;;12.27;6.20;;;9.10;1.00;;;;;;5086355;28;20431;-84
2022/11/15 04:59:58;;;;;;;11.80;5.50;;;9.20;1.00;;;;;;5082310;28;20407;-84
2022/11/15 05:05:58;;;;;;;7.70;5.60;;;9.20;1.00;;;;;;5092230;28;20424;-84
2022/11/15 05:08:34;;;;;;;9.23;5.03;;;9.20;1.00;;;;;;5075534;28;20856;-85
2022/11/15 05:11:04;;;;;;;10.03;5.13;;;9.20;1.00;;;;;;5077872;28;20478;-85
2022/11/15 05:13:34;;;;;;;7.67;5.20;;;9.30;1.00;;;;;;5073934;28;20425;-86
2022/11/15 05:19:22;;;;;;;7.40;5.20;;;9.30;1.00;;;;;;5075023;28;20493;-84
2022/11/15 05:25:09;;;;;;;7.70;5.20;;;9.30;1.00;;;;;;5082528;28;20675;-85
2022/11/15 05:28:27;;;;;;;12.63;5.80;;;9.30;1.00;;;;;;5088277;28;20512;-85
2022/11/15 05:31:16;;;;;;;8.63;5.60;;;9.40;1.00;;;;;;5088301;28;20198;-88
2022/11/15 05:33:59;;;;;;;8.43;5.37;;;9.40;1.00;;;;;;5083368;28;20924;-84
2022/11/15 05:36:45;;;;;;;8.70;4.63;;;9.40;1.30;;;;;;5088510;28;20429;-85
2022/11/15 05:39:40;;;;;;;8.57;5.10;;;9.50;1.00;;;;;;5083783;28;20963;-87
2022/11/15 05:45:40;;;;;;;5.63;4.53;;;9.50;1.00;;;;;;5090431;28;20396;-87
2022/11/15 05:51:29;;;;;;;7.67;5.40;;;9.60;1.00;;;;;;5087595;28;20463;-87
2022/11/15 05:54:40;;;;;;;8.60;5.20;;;9.70;1.00;;;;;;5084746;28;20458;-87
2022/11/15 05:57:40;;;;;;;10.20;4.67;;;9.70;1.00;;;;;;5076073;28;20420;-87
2022/11/15 06:04:04;;;;;;;9.87;4.57;;;9.70;1.00;;;;;;5085088;28;20793;-87
2022/11/15 06:09:51;;;;;;;8.63;4.67;;;9.70;1.00;;;;;;5087377;28;20404;-87
2022/11/15 06:16:04;;;;;;;4.83;4.33;;;9.70;2.20;;;;;;5087807;28;20180;-86
2022/11/15 06:18:46;;;;;;;8.40;4.77;;;9.80;8.50;;;;;;5075787;28;20410;-86
2022/11/15 06:21:34;;;;;;;13.60;4.83;;;10.00;9.20;;;;;;5076491;28;20439;-86
2022/11/15 06:31:20;;;;;;;8.40;5.33;;;10.10;6.40;;;;;;5078801;28;20448;-86
2022/11/15 06:34:10;;;;;;;10.10;5.30;;;10.20;6.10;;;;;;5015187;28;20431;-87
2022/11/15 06:36:46;;;;;;;13.10;4.67;;;10.30;3.80;;;;;;4995073;28;20421;-88
2022/11/15 06:39:12;;;;;;;9.10;4.90;;;10.40;2.60;;;;;;5014253;28;20518;-88
2022/11/15 06:45:40;;;;;;;7.37;4.30;;;10.40;1.00;;;;;;5011581;28;20188;-87
2022/11/15 06:51:27;;;;;;;13.40;5.27;;;10.50;1.00;;;;;;5004438;28;20456;-85
2022/11/15 06:53:53;;;;;;;9.57;4.63;;;10.50;1.00;;;;;;4992532;28;20441;-74
2022/11/15 06:56:19;;;;;;;8.13;4.70;;;10.60;1.00;;;;;;5003048;28;20241;-75
2022/11/15 06:58:52;;;;;;;8.23;4.60;;;10.60;1.00;;;;;;5012536;28;20412;-75
2022/11/15 07:01:22;;;;;;;9.97;4.60;;;10.70;1.00;;;;;;5013097;28;20559;-84
2022/11/15 07:03:48;;;;;;;9.20;4.50;;;10.70;1.00;;;;;;5007041;28;20526;-79
2022/11/15 07:06:16;;;;;;;15.13;4.83;;;10.70;1.00;;;;;;4996728;28;20518;-75
2022/11/15 07:08:46;;;;;;;8.10;4.27;;;10.80;1.00;;;;;;5076057;28;20190;-76
2022/11/15 07:11:16;;;;;;;8.23;4.70;;;10.70;1.00;;;;;;5081240;28;20486;-75
2022/11/15 07:14:10;;;;;;;9.90;4.40;;;10.70;1.00;;;;;;5090763;28;20417;-75
2022/11/15 07:16:37;;;;;;;8.57;3.97;;;10.70;1.00;;;;;;5090048;28;20416;-75
2022/11/15 07:19:03;;;;;;;11.40;4.37;;;10.60;1.00;;;;;;5095400;28;20721;-74
2022/11/15 07:21:28;;;;;;;11.03;4.23;;;10.70;1.00;;;;;;5075528;28;20504;-75
2022/11/15 07:23:58;;;;;;;8.20;4.27;;;10.60;1.00;;;;;;5077300;28;20509;-85
2022/11/15 07:26:52;;;;;;;12.10;4.70;;;10.70;1.00;;;;;;5085152;28;20931;-78
2022/11/15 07:29:34;;;;;;;7.77;4.50;;;10.70;1.00;;;;;;5079064;28;20814;-78
2022/11/15 07:32:00;;;;;;;5.13;4.03;;;10.90;1.00;;;;;;5090113;28;20982;-78
2022/11/15 07:34:34;;;;;;;7.13;3.93;;;11.00;1.00;;;;;;5080683;28;20432;-77
2022/11/15 07:37:04;;;;;;;8.60;5.10;;;11.20;1.00;;;;;;5081072;28;20533;-77
2022/11/15 07:39:46;;;;;;;8.40;4.60;;;11.30;1.00;;;;;;5087566;28;20946;-78
2022/11/15 07:45:26;;;;;;;9.30;4.30;;;11.60;1.00;;;;;;5074285;28;20502;-78
2022/11/15 07:48:05;;;;;;;7.20;4.33;;;11.70;1.00;;;;;;5084689;28;20404;-75
2022/11/15 07:50:46;;;;;;;6.63;4.37;;;11.80;1.00;;;;;;5078703;28;20514;-75
2022/11/15 07:53:12;;;;;;;17.90;4.67;;;12.00;1.00;;;;;;5076615;28;20416;-75
2022/11/15 07:55:40;;;;;;;10.13;4.40;;;12.00;1.00;;;;;;5081729;28;20404;-75
2022/11/15 07:58:08;;;;;;;12.30;4.40;;;12.00;1.00;;;;;;5080655;28;20907;-75
2022/11/15 08:00:35;;;;;;;7.60;4.33;;;12.10;1.00;;;;;;5087512;28;20519;-75
2022/11/15 08:03:11;;;;;;;8.87;4.10;;;12.20;1.00;;;;;;5079273;28;20960;-75
2022/11/15 08:05:42;;;;;;;10.83;4.33;;;12.40;1.00;;;;;;5088319;28;20424;-79
2022/11/15 08:08:09;;;;;;;8.10;4.63;;;12.40;1.00;;;;;;5089509;28;20441;-78
2022/11/15 08:10:52;;;;;;;9.83;4.30;;;12.60;1.00;;;;;;5075020;28;20809;-78
2022/11/15 08:13:52;;;;;;;12.30;4.03;;;12.70;1.00;;;;;;5076223;28;20801;-78
2022/11/15 08:16:18;;;;;;;6.60;4.10;;;12.80;1.00;;;;;;5078075;28;20512;-78
2022/11/15 08:18:44;;;;;;;7.57;5.17;;;13.00;1.00;;;;;;5085498;28;20454;-75
2022/11/15 08:21:12;;;;;;;14.20;4.73;;;13.10;1.00;;;;;;5084128;28;20175;-75
2022/11/15 08:23:38;;;;;;;8.23;4.33;;;13.20;1.00;;;;;;5090825;28;20432;-76
2022/11/15 08:26:05;;;;;;;26.13;4.83;;;13.30;1.00;;;;;;5088038;28;20775;-76
2022/11/15 08:28:32;;;;;;;8.20;4.30;;;13.40;1.00;;;;;;5072092;28;20660;-76
2022/11/15 08:30:57;;;;;;;4.23;3.83;;;13.50;1.00;;;;;;5083448;28;20460;-76
2022/11/15 08:33:24;;;;;;;6.23;4.33;;;13.60;1.00;;;;;;5101130;28;20467;-77
2022/11/15 08:35:56;;;;;;;12.33;4.47;;;13.70;1.00;;;;;;5092031;28;20185;-78
2022/11/15 08:38:34;;;;;;;7.80;4.40;;;13.80;1.00;;;;;;5073782;28;20479;-77
2022/11/15 08:41:03;;;;;;;7.63;4.40;;;13.80;1.00;;;;;;5074921;28;20435;-78
2022/11/15 08:43:40;;;;;;;6.20;4.80;;;13.90;1.00;;;;;;5081096;28;20425;-78
2022/11/15 08:46:13;;;;;;;18.93;4.37;;;14.00;1.00;;;;;;5073515;28;20392;-78
2022/11/15 08:49:10;;;;;;;6.80;4.43;;;14.10;1.00;;;;;;5076833;28;20428;-79
2022/11/15 08:51:40;;;;;;;6.37;4.70;;;14.20;1.00;;;;;;5079695;28;20460;-78
2022/11/15 08:54:06;;;;;;;11.13;5.03;;;14.20;1.00;;;;;;5073303;28;20423;-78
2022/11/15 08:56:40;;;;;;;8.37;4.80;;;14.30;1.00;;;;;;5079491;28;20420;-78
2022/11/15 08:59:10;;;;;;;22.10;5.00;;;14.30;1.00;;;;;;5074736;28;20163;-78
2022/11/15 09:01:46;;;;;;;6.40;4.80;;;14.40;1.00;;;;;;5078016;28;20431;-79
2022/11/15 09:04:17;;;;;;;14.17;4.60;;;14.40;1.00;;;;;;5072704;28;20413;-78
2022/11/15 09:06:46;;;;;;;8.23;5.50;;;14.40;1.00;;;;;;5074612;28;21127;-78
2022/11/15 09:09:12;;;;;;;13.20;4.83;;;14.40;1.00;;;;;;5081795;28;20911;-71
2022/11/15 09:11:38;;;;;;;5.70;4.53;;;14.50;1.00;;;;;;5075442;28;20463;-70
2022/11/15 09:14:04;;;;;;;9.43;4.70;;;14.60;1.00;;;;;;5074687;28;20178;-83
2022/11/15 09:16:31;;;;;;;5.93;4.63;;;14.70;1.00;;;;;;5092263;28;20174;-85
2022/11/15 09:18:56;;;;;;;13.03;5.07;;;14.90;1.00;;;;;;5081396;28;20420;-76
2022/11/15 09:21:22;;;;;;;5.57;4.73;;;15.00;1.00;;;;;;5087937;28;20428;-77
2022/11/15 09:23:51;;;;;;;12.93;5.57;;;15.00;1.00;;;;;;5093633;28;20253;-76
2022/11/15 09:26:18;;;;;;;11.43;5.37;;;15.10;1.00;;;;;;5094432;28;20397;-78
2022/11/15 09:28:44;;;;;;;10.20;5.10;;;15.10;1.00;;;;;;5091067;28;20798;-77
2022/11/15 09:31:17;;;;;;;8.33;4.70;;;15.20;1.00;;;;;;5077750;28;20880;-78
2022/11/15 09:33:46;;;;;;;9.63;4.67;;;15.20;1.00;;;;;;5089450;28;20178;-78
2022/11/15 09:36:12;;;;;;;8.07;4.60;;;15.30;1.00;;;;;;5107938;28;20404;-78
2022/11/15 09:38:53;;;;;;;8.40;4.50;;;15.20;1.00;;;;;;5078892;28;20413;-77
2022/11/15 09:41:33;;;;;;;7.40;4.10;;;15.00;1.00;;;;;;5092549;28;20428;-77
2022/11/15 09:44:38;;;;;;;8.60;4.40;;;15.00;1.00;;;;;;5078279;28;20482;-77
2022/11/15 09:47:42;;;;;;;6.00;3.77;;;15.00;1.00;;;;;;5075425;28;20425;-78
2022/11/15 09:50:18;;;;;;;6.63;4.57;;;15.00;1.00;;;;;;5015710;28;20565;-77
2022/11/15 09:52:45;;;;;;;7.40;4.03;;;14.90;1.00;;;;;;5034074;28;20514;-77
2022/11/15 09:55:16;;;;;;;5.70;4.10;;;14.90;1.00;;;;;;5022516;28;20959;-77
2022/11/15 09:57:53;;;;;;;10.43;4.50;;;14.80;1.00;;;;;;5033946;28;20941;-77
2022/11/15 10:00:34;;;;;;;7.00;4.07;;;14.80;1.00;;;;;;5031224;28;20940;-77
2022/11/15 10:03:12;;;;;;;7.27;4.20;;;14.80;1.00;;;;;;5033595;28;20938;-77
2022/11/15 10:05:46;;;;;;;5.70;3.83;;;14.90;1.00;;;;;;5019795;28;20907;-77
2022/11/15 10:08:58;;;;;;;7.40;4.10;;;15.00;1.00;;;;;;5023576;28;20552;-78
2022/11/15 10:11:37;;;;;;;11.60;3.87;;;15.20;1.00;;;;;;5041637;28;20465;-78
2022/11/15 10:14:15;;;;;;;7.17;3.97;;;15.40;1.00;;;;;;5032412;28;20442;-78
2022/11/15 10:16:59;;;;;;;5.20;3.90;;;15.50;1.00;;;;;;5029320;28;20438;-78
2022/11/15 10:19:51;;;;;;;8.40;4.10;;;15.40;1.00;;;;;;5028764;28;20435;-78
2022/11/15 10:22:40;;;;;;;9.83;4.43;;;15.40;1.00;;;;;;4968328;28;20416;-84
2022/11/15 10:25:26;;;;;;;153.20;76.07;;;15.40;1.00;;;;;;4974001;28;20473;-76
2022/11/15 10:28:00;;;;;;;25.20;14.10;;;15.30;1.00;;;;;;5018263;28;20436;-79
2022/11/15 10:30:38;;;;;;;14.83;7.30;;;15.40;1.00;;;;;;5025890;28;20890;-78
2022/11/15 10:33:17;;;;;;;28.30;16.07;;;15.40;1.00;;;;;;5028484;28;20455;-70
2022/11/15 10:35:43;;;;;;;12.13;7.10;;;15.40;1.00;;;;;;5030469;28;20580;-70
2022/11/15 10:38:11;;;;;;;13.83;8.70;;;15.40;1.00;;;;;;5027584;28;20431;-71
2022/11/15 10:40:38;;;;;;;11.53;6.23;;;15.50;1.00;;;;;;5018962;28;20196;-71
2022/11/15 10:43:09;;;;;;;6.40;4.80;;;15.60;1.00;;;;;;5029125;28;20435;-71
2022/11/15 10:45:36;;;;;;;18.60;10.80;;;15.40;1.00;;;;;;5029094;28;20457;-71
2022/11/15 10:48:28;;;;;;;9.53;6.67;;;15.40;1.00;;;;;;5026986;28;20431;-71
2022/11/15 10:50:55;;;;;;;41.50;22.80;;;15.40;1.00;;;;;;5025975;28;20458;-71
2022/11/15 10:53:30;;;;;;;120.80;60.57;;;15.40;1.00;;;;;;5031236;28;20463;-70
2022/11/15 10:56:00;;;;;;;22.90;13.20;;;15.40;1.00;;;;;;5024098;28;20466;-70
2022/11/15 10:58:38;;;;;;;11.53;5.03;;;15.50;1.00;;;;;;5026301;28;20395;-70
2022/11/15 11:01:25;;;;;;;7.43;5.13;;;15.40;1.00;;;;;;5075423;28;20418;-70
2022/11/15 11:04:02;;;;;;;43.17;22.23;;;15.40;1.00;;;;;;5075141;28;20910;-70
2022/11/15 11:06:29;;;;;;;28.87;13.57;;;15.40;1.00;;;;;;5074661;28;20395;-70
2022/11/15 11:09:00;;;;;;;26.67;11.73;;;15.40;1.00;;;;;;5081101;28;20431;-71
2022/11/15 11:11:45;;;;;;;21.83;11.20;;;15.50;1.00;;;;;;5078777;28;20989;-71
2022/11/15 11:14:15;;;;;;;10.97;6.00;;;15.60;1.00;;;;;;5074196;28;20936;-71
2022/11/15 11:17:11;;;;;;;12.90;7.70;;;15.60;1.00;;;;;;5075841;28;20462;-71
2022/11/15 11:19:43;;;;;;;8.23;5.07;;;15.50;1.00;;;;;;5011615;28;20432;-71
2022/11/15 11:22:30;;;;;;;7.07;5.00;;;15.50;1.00;;;;;;5006134;28;20428;-70
2022/11/15 11:25:30;;;;;;;15.07;9.60;;;15.30;1.00;;;;;;5010334;28;20951;-70
2022/11/15 11:28:11;;;;;;;5.90;4.53;;;15.30;1.00;;;;;;5003186;28;20539;-70
2022/11/15 11:30:54;;;;;;;7.13;4.37;;;15.40;1.00;;;;;;5003430;28;20611;-70
2022/11/15 11:34:03;;;;;;;7.50;5.47;;;15.30;1.00;;;;;;5012386;28;20439;-70
2022/11/15 11:36:44;;;;;;;6.53;4.50;;;15.30;1.00;;;;;;4980679;28;20508;-70
2022/11/15 11:39:30;;;;;;;12.23;9.30;;;15.30;1.00;;;;;;4992832;28;20448;-71
2022/11/15 11:42:30;;;;;;;41.77;28.13;;;15.40;1.00;;;;;;4991842;28;20433;-72
2022/11/15 11:45:13;;;;;;;13.10;8.63;;;15.40;1.00;;;;;;4934479;29;20419;-71
2022/11/15 11:47:51;;;;;;;17.83;11.70;;;15.40;1.00;;;;;;4925756;29;20424;-71
2022/11/15 11:50:25;;;;;;;17.37;11.67;;;15.50;1.00;;;;;;4934307;29;20813;-71
2022/11/15 11:52:56;;;;;;;12.90;5.10;;;15.50;1.00;;;;;;4909951;29;21061;-70
2022/11/15 11:55:31;;;;;;;43.83;29.37;;;15.50;1.00;;;;;;4913567;29;20436;-70
2022/11/15 11:58:15;;;;;;;44.80;24.47;;;15.50;1.00;;;;;;4967148;28;20905;-70
2022/11/15 12:01:03;;;;;;;40.00;20.93;;;15.60;1.00;;;;;;4972738;28;20878;-70
2022/11/15 12:03:45;;;;;;;100.57;52.50;;;15.60;1.00;;;;;;4972057;28;20508;-70
2022/11/15 12:06:34;;;;;;;62.33;33.63;;;15.80;1.00;;;;;;4985297;28;20746;-70
2022/11/15 12:09:20;;;;;;;20.43;11.50;;;15.90;1.00;;;;;;4973068;28;20412;-70
2022/11/15 12:12:00;;;;;;;36.00;22.57;;;16.00;1.00;;;;;;4962615;28;20486;-70
2022/11/15 12:14:49;;;;;;;18.80;12.17;;;16.10;1.00;;;;;;5037652;28;20414;-70
2022/11/15 12:17:19;;;;;;;17.70;10.63;;;16.10;1.00;;;;;;5043703;28;20420;-70
2022/11/15 12:19:45;;;;;;;7.47;6.10;;;16.00;1.00;;;;;;5046729;28;20849;-70
2022/11/15 12:22:23;;;;;;;6.47;4.50;;;16.00;1.00;;;;;;5082819;28;20450;-70
2022/11/15 12:25:14;;;;;;;9.70;6.37;;;16.10;1.00;;;;;;5073854;28;20416;-71
2022/11/15 12:27:48;;;;;;;26.13;16.80;;;16.10;1.00;;;;;;5090133;28;20486;-72
2022/11/15 12:30:17;;;;;;;6.00;5.10;;;16.30;1.00;;;;;;5091008;28;20424;-71
2022/11/15 12:32:53;;;;;;;5.27;3.53;;;16.40;1.00;;;;;;5074180;28;20433;-71
2022/11/15 12:35:42;;;;;;;11.60;7.80;;;16.60;1.00;;;;;;5081566;28;20388;-71
2022/11/15 12:38:12;;;;;;;6.97;3.57;;;16.70;1.00;;;;;;5065565;28;20492;-70
2022/11/15 12:41:13;;;;;;;4.80;2.90;;;16.80;1.00;;;;;;5081852;28;20805;-70
2022/11/15 12:43:42;;;;;;;5.47;3.20;;;16.80;1.00;;;;;;5076836;28;20403;-72
2022/11/15 12:46:22;;;;;;;7.70;2.90;;;16.80;1.00;;;;;;5079099;28;20414;-71
2022/11/15 12:48:52;;;;;;;4.77;4.20;;;16.60;1.00;;;;;;5073103;28;20441;-72
2022/11/15 12:51:22;;;;;;;3.07;2.73;;;16.50;1.00;;;;;;5079143;28;20446;-72
2022/11/15 12:53:47;;;;;;;8.67;4.03;;;16.20;1.00;;;;;;5077542;28;20935;-72
2022/11/15 12:56:16;;;;;;;11.67;4.33;;;16.30;1.00;;;;;;5081961;28;20467;-72
2022/11/15 12:58:43;;;;;;;5.20;2.80;;;16.20;1.00;;;;;;5083391;28;20183;-71
2022/11/15 13:01:10;;;;;;;11.57;6.80;;;16.20;1.00;;;;;;5080439;28;20483;-70
2022/11/15 13:04:11;;;;;;;4.63;2.80;;;16.20;1.00;;;;;;5079938;28;20401;-70
2022/11/15 13:06:51;;;;;;;5.73;3.93;;;16.10;1.00;;;;;;5083933;28;20422;-70
2022/11/15 13:09:36;;;;;;;8.67;4.87;;;16.00;1.00;;;;;;5092095;28;20900;-70
2022/11/15 13:12:24;;;;;;;14.90;9.60;;;16.10;1.00;;;;;;5077639;28;20851;-70
2022/11/15 13:14:54;;;;;;;11.67;8.57;;;16.20;1.00;;;;;;5076243;28;20494;-70
2022/11/15 13:17:19;;;;;;;6.60;5.10;;;16.30;1.00;;;;;;5085722;28;20886;-70
2022/11/15 13:20:14;;;;;;;5.57;2.77;;;16.30;1.00;;;;;;5087386;28;20400;-71
2022/11/15 13:22:50;;;;;;;2.70;2.50;;;16.20;1.00;;;;;;5079644;28;20257;-71
2022/11/15 13:25:27;;;;;;;3.57;2.30;;;16.10;1.00;;;;;;5076189;28;20402;-72
2022/11/15 13:27:56;;;;;;;4.80;2.87;;;16.20;1.00;;;;;;5075057;28;20466;-72
2022/11/15 13:30:25;;;;;;;7.87;7.07;;;16.30;1.00;;;;;;5076103;28;20472;-71
2022/11/15 13:32:52;;;;;;;13.07;9.67;;;16.40;1.00;;;;;;5079713;28;20908;-72
2022/11/15 13:35:26;;;;;;;10.37;7.43;;;16.10;1.00;;;;;;5085495;28;20384;-71
2022/11/15 13:37:54;;;;;;;24.33;15.43;;;16.20;1.00;;;;;;5089021;28;20413;-72
2022/11/15 13:40:30;;;;;;;18.23;11.27;;;16.20;1.00;;;;;;5078511;28;20513;-72
2022/11/15 13:43:35;;;;;;;3.07;2.60;;;16.20;1.00;;;;;;5080578;28;20500;-74
2022/11/15 13:46:22;;;;;;;8.37;4.30;;;16.10;1.00;;;;;;5081881;28;20508;-73
2022/11/15 13:48:58;;;;;;;76.70;36.03;;;16.00;1.00;;;;;;5082889;28;20409;-73
2022/11/15 13:51:40;;;;;;;60.93;28.40;;;16.00;1.00;;;;;;5087352;28;20806;-73
2022/11/15 13:54:26;;;;;;;99.23;43.33;;;16.00;1.00;;;;;;5083044;28;20417;-73
2022/11/15 13:56:55;;;;;;;254.97;116.70;;;15.90;1.00;;;;;;5096240;28;20391;-73
2022/11/15 13:59:33;;;;;;;646.40;387.13;;;15.90;1.00;;;;;;5077317;28;20393;-73
2022/11/15 14:02:11;;;;;;;90.27;45.10;;;15.80;1.00;;;;;;5079830;28;20935;-72
2022/11/15 14:04:44;;;;;;;78.23;46.33;;;15.90;1.00;;;;;;5091103;28;20390;-72
2022/11/15 14:07:19;;;;;;;9.90;6.97;;;15.80;1.00;;;;;;5080567;28;20434;-72
2022/11/15 14:09:46;;;;;;;9.50;6.93;;;15.80;1.00;;;;;;5076677;28;20433;-72
2022/11/15 14:12:31;;;;;;;16.57;10.50;;;15.80;1.00;;;;;;5074303;28;20454;-72
2022/11/15 14:15:00;;;;;;;2.57;2.37;;;15.70;1.00;;;;;;5088961;28;20403;-72
2022/11/15 14:17:29;;;;;;;2.93;2.70;;;15.80;1.00;;;;;;5089566;28;21036;-71
2022/11/15 14:19:56;;;;;;;190.63;112.03;;;15.80;1.00;;;;;;5076859;28;20403;-72
2022/11/15 14:22:37;;;;;;;18.43;12.20;;;15.80;1.00;;;;;;5076803;28;20422;-83
2022/11/15 14:25:23;;;;;;;4.60;3.50;;;15.80;1.00;;;;;;5083076;28;20922;-82
2022/11/15 14:28:23;;;;;;;5.33;3.60;;;15.80;1.00;;;;;;5088831;28;20974;-82
2022/11/15 14:31:12;;;;;;;10.53;8.40;;;15.70;1.00;;;;;;5090293;28;20519;-84
2022/11/15 14:37:35;;;;;;;39.47;24.43;;;15.70;1.00;;;;;;5079503;28;20412;-84
2022/11/15 14:40:09;;;;;;;7.77;5.10;;;15.60;1.00;;;;;;5091879;28;20387;-81
2022/11/15 14:42:43;;;;;;;17.13;8.87;;;15.60;1.00;;;;;;5081946;28;20467;-84
2022/11/15 14:45:20;;;;;;;4.80;3.23;;;15.60;1.00;;;;;;5074426;28;20789;-76
2022/11/15 14:47:48;;;;;;;2.50;2.10;;;15.50;1.00;;;;;;5078869;28;20937;-78
2022/11/15 14:50:16;;;;;;;10.53;1.67;;;15.50;1.00;;;;;;5075149;28;20496;-77
2022/11/15 14:52:43;;;;;;;3.03;1.40;;;15.50;1.00;;;;;;5083666;28;20450;-76
2022/11/15 14:55:34;;;;;;;3.73;1.47;;;15.50;1.00;;;;;;5084997;28;20908;-78
2022/11/15 14:58:29;;;;;;;2.67;1.50;;;15.50;1.00;;;;;;5074467;28;20789;-79
2022/11/15 15:01:26;;;;;;;2.30;1.83;;;15.40;1.00;;;;;;5088908;28;20387;-79
2022/11/15 15:04:00;;;;;;;3.43;2.00;;;15.30;1.00;;;;;;5008077;28;20527;-82
2022/11/15 15:06:27;;;;;;;4.87;1.70;;;15.30;1.00;;;;;;5001131;28;20442;-81
2022/11/15 15:09:00;;;;;;;4.50;2.10;;;15.20;1.00;;;;;;5012731;28;20827;-82
2022/11/15 15:11:28;;;;;;;4.73;2.17;;;15.10;1.00;;;;;;5009687;28;20521;-84
2022/11/15 15:13:56;;;;;;;6.90;2.30;;;15.00;1.00;;;;;;5004813;28;20421;-80
2022/11/15 15:16:30;;;;;;;5.63;1.70;;;14.90;1.00;;;;;;4977264;28;20492;-80
2022/11/15 15:19:06;;;;;;;5.23;1.93;;;14.80;1.00;;;;;;5009439;28;20428;-82
2022/11/15 15:21:37;;;;;;;10.40;2.03;;;14.70;1.00;;;;;;5003521;28;20987;-79
2022/11/15 15:24:04;;;;;;;3.30;1.67;;;14.60;1.00;;;;;;5010247;28;20434;-73
2022/11/15 15:26:37;;;;;;;1.70;1.60;;;14.50;1.00;;;;;;5001959;28;20432;-75
2022/11/15 15:29:04;;;;;;;2.57;2.10;;;14.40;1.00;;;;;;4999028;28;20431;-75
2022/11/15 15:31:30;;;;;;;8.80;1.87;;;14.30;1.00;;;;;;5011420;28;20484;-75
2022/11/15 15:34:00;;;;;;;3.13;1.77;;;14.20;1.00;;;;;;4997437;28;20440;-75
2022/11/15 15:36:36;;;;;;;3.13;2.10;;;14.10;1.00;;;;;;5010614;28;20481;-75
2022/11/15 15:39:10;;;;;;;9.63;1.80;;;14.00;1.00;;;;;;5013169;28;20435;-74
2022/11/15 15:41:35;;;;;;;2.83;1.70;;;14.00;1.00;;;;;;5076955;28;20482;-77
2022/11/15 15:44:01;;;;;;;3.83;1.77;;;13.90;1.00;;;;;;5073142;28;20959;-74
2022/11/15 15:46:27;;;;;;;10.13;6.37;;;13.80;1.00;;;;;;5087958;28;20256;-75
2022/11/15 15:48:53;;;;;;;101.47;42.30;;;13.70;1.00;;;;;;5074457;28;20626;-75
2022/11/15 15:51:30;;;;;;;28.93;10.67;;;13.60;1.00;;;;;;5087939;28;20496;-75
2022/11/15 15:53:57;;;;;;;7.53;4.23;;;13.60;1.00;;;;;;5083004;28;20181;-75
2022/11/15 15:56:23;;;;;;;4.43;3.00;;;13.50;1.00;;;;;;5076314;28;20829;-75
2022/11/15 15:58:55;;;;;;;3.63;2.47;;;13.40;1.00;;;;;;5081194;28;20455;-76
2022/11/15 16:01:42;;;;;;;3.47;2.83;;;13.30;1.00;;;;;;5078278;28;20400;-77
2022/11/15 16:04:08;;;;;;;2.50;2.30;;;13.30;1.00;;;;;;5087640;28;20446;-76
2022/11/15 16:06:44;;;;;;;6.47;2.47;;;13.20;1.00;;;;;;5080828;28;20903;-76